Time;durP1;ratioP1;P1;durP2;ratioP2;P2;SDS_P1;SDS_P2;PMS_P1;PMS_P2;Temp;Humidity;BMP_temperature;BMP_pressure;BME280_temperature;BME280_humidity;BME280_pressure;Samples;Min_cycle;Max_cycle;Signal;HPM_P1;HPM_P2
2022/06/09 00:00:10;;;;;;;7.18;3.80;;;;;;;20.99;67.77;99000.56;3135414;28;20223;-67
2022/06/09 00:01:46;;;;;;;6.82;3.30;;;;;;;20.94;67.78;99001.03;3131950;28;20044;-67
2022/06/09 00:03:22;;;;;;;7.57;3.90;;;;;;;20.88;68.25;98996.34;3129069;28;20056;-67
2022/06/09 00:04:54;;;;;;;4.35;3.55;;;;;;;20.83;68.44;98996.00;3136104;28;20521;-67
2022/06/09 00:06:30;;;;;;;4.72;4.05;;;;;;;20.72;68.64;98988.31;3135676;28;20159;-67
2022/06/09 00:08:05;;;;;;;6.95;3.55;;;;;;;20.76;68.91;98990.47;3137533;28;20083;-67
2022/06/09 00:09:44;;;;;;;7.00;3.40;;;;;;;20.74;69.08;98999.56;3140229;28;20114;-68
2022/06/09 00:11:19;;;;;;;6.43;3.78;;;;;;;20.66;69.34;98993.22;3140367;28;20139;-68
2022/06/09 00:12:51;;;;;;;4.22;3.60;;;;;;;20.63;69.47;98990.06;3139918;28;20515;-69
2022/06/09 00:14:24;;;;;;;5.53;3.50;;;;;;;20.61;69.37;98986.72;3140224;28;20453;-69
2022/06/09 00:15:56;;;;;;;4.05;3.35;;;;;;;20.59;69.51;98986.06;3139788;28;20117;-69
2022/06/09 00:17:28;;;;;;;6.10;3.20;;;;;;;20.51;69.94;98985.94;3140364;28;20505;-69
2022/06/09 00:19:00;;;;;;;4.60;3.05;;;;;;;20.49;69.83;98987.91;3140089;28;20593;-69
2022/06/09 00:20:32;;;;;;;3.72;2.90;;;;;;;20.42;70.33;98988.53;3133728;28;20052;-68
2022/06/09 00:22:04;;;;;;;3.45;2.70;;;;;;;20.38;70.35;98984.53;3140111;28;20126;-69
2022/06/09 00:23:37;;;;;;;4.60;3.53;;;;;;;20.29;70.52;98977.50;3140045;28;20117;-68
2022/06/09 00:25:11;;;;;;;8.57;3.00;;;;;;;20.33;70.41;98980.69;3140031;28;20052;-69
2022/06/09 00:26:43;;;;;;;5.35;3.45;;;;;;;20.29;70.42;98987.22;3140027;28;20056;-68
2022/06/09 00:28:15;;;;;;;4.75;3.10;;;;;;;20.25;70.49;98989.34;3140213;28;20060;-68
2022/06/09 00:29:47;;;;;;;4.93;3.47;;;;;;;20.29;70.32;98981.94;3140126;28;20063;-69
2022/06/09 00:31:20;;;;;;;3.90;3.10;;;;;;;20.31;69.93;98986.09;3136732;28;20048;-70
2022/06/09 00:32:51;;;;;;;5.82;2.67;;;;;;;20.32;69.98;98985.13;3135318;28;20087;-70
2022/06/09 00:34:23;;;;;;;6.25;3.10;;;;;;;20.36;69.84;98983.03;3140353;28;20143;-69
2022/06/09 00:35:55;;;;;;;7.90;2.95;;;;;;;20.39;69.43;98982.72;3139523;28;20215;-70
2022/06/09 00:37:26;;;;;;;4.07;2.72;;;;;;;20.38;69.48;98986.31;3139966;28;20114;-69
2022/06/09 00:38:58;;;;;;;4.93;2.97;;;;;;;20.36;69.26;98983.03;3139366;28;20052;-70
2022/06/09 00:40:33;;;;;;;3.70;2.85;;;;;;;20.41;69.39;98986.03;3140296;28;20080;-70
2022/06/09 00:42:05;;;;;;;5.80;3.40;;;;;;;20.42;69.33;98987.69;3139966;28;20522;-69
2022/06/09 00:43:37;;;;;;;3.15;2.78;;;;;;;20.42;69.46;98985.06;3136330;28;20472;-69
2022/06/09 00:45:33;;;;;;;4.78;3.03;;;;;;;20.44;69.26;98986.56;3139806;28;20079;-69
2022/06/09 00:47:09;;;;;;;8.18;3.28;;;;;;;20.46;69.25;98984.59;3136427;28;20075;-69
2022/06/09 00:48:45;;;;;;;4.15;2.80;;;;;;;20.50;68.95;98978.97;3140240;28;20445;-68
2022/06/09 00:50:19;;;;;;;4.45;3.05;;;;;;;20.41;69.23;98965.72;3139897;28;20052;-69
2022/06/09 00:51:57;;;;;;;11.45;3.78;;;;;;;20.54;69.09;98981.22;3139931;28;20399;-69
2022/06/09 00:53:33;;;;;;;6.78;3.35;;;;;;;20.46;68.75;98965.25;3134016;28;20071;-69
2022/06/09 00:55:12;;;;;;;5.00;3.40;;;;;;;20.56;68.77;98979.25;3133703;28;20049;-69
2022/06/09 00:56:52;;;;;;;4.15;3.15;;;;;;;20.56;68.98;98970.50;3133939;28;20044;-69
2022/06/09 00:58:25;;;;;;;6.03;2.88;;;;;;;20.56;68.94;98975.78;3134001;28;20110;-68
2022/06/09 01:00:04;;;;;;;4.93;2.40;;;;;;;20.56;68.60;98975.78;3139801;28;20052;-68
2022/06/09 01:01:36;;;;;;;4.03;2.90;;;;;;;20.55;68.48;98979.41;3139782;28;20059;-68
2022/06/09 01:03:09;;;;;;;5.03;2.75;;;;;;;20.50;68.79;98969.25;3141694;28;20067;-69
2022/06/09 01:04:41;;;;;;;6.57;2.70;;;;;;;20.50;68.44;98971.91;3142181;28;20467;-70
2022/06/09 01:06:17;;;;;;;3.17;2.75;;;;;;;20.53;68.54;98976.06;3140017;28;20144;-69
2022/06/09 01:07:53;;;;;;;4.60;2.83;;;;;;;20.53;68.32;98974.28;3142370;28;20048;-69
2022/06/09 01:09:27;;;;;;;2.90;2.60;;;;;;;20.55;67.98;98971.47;3142368;28;20237;-68
2022/06/09 01:10:59;;;;;;;3.70;2.83;;;;;;;20.55;67.95;98971.47;3142113;28;20067;-68
2022/06/09 01:12:37;;;;;;;5.35;2.42;;;;;;;20.57;68.12;98974.78;3142346;28;20092;-69
2022/06/09 01:14:13;;;;;;;5.22;2.53;;;;;;;20.58;68.10;98979.91;3142181;28;20195;-69
2022/06/09 01:15:50;;;;;;;5.93;2.70;;;;;;;20.61;67.90;98974.31;3142285;28;20782;-69
2022/06/09 01:17:29;;;;;;;4.10;2.17;;;;;;;20.60;67.71;98975.31;3142274;28;20044;-70
2022/06/09 01:19:32;;;;;;;6.32;2.78;;;;;;;20.62;67.76;98970.72;3142060;28;20079;-68
2022/06/09 01:21:10;;;;;;;5.65;2.47;;;;;;;20.66;67.53;98974.69;3141856;28;20346;-69
2022/06/09 01:23:14;;;;;;;2.92;2.55;;;;;;;20.66;67.56;98968.56;3142326;28;20060;-69
2022/06/09 01:25:21;;;;;;;4.63;2.88;;;;;;;20.66;67.44;98972.06;3131855;28;20056;-69
2022/06/09 01:27:18;;;;;;;3.88;2.10;;;;;;;20.66;67.32;98972.06;3140421;28;20044;-70
2022/06/09 01:29:25;;;;;;;4.43;2.58;;;;;;;20.68;67.34;98971.91;3136521;28;20056;-69
2022/06/09 01:31:02;;;;;;;4.18;2.70;;;;;;;20.67;67.53;98973.72;3140259;28;20121;-70
2022/06/09 01:32:37;;;;;;;3.08;2.70;;;;;;;20.68;67.71;98969.25;3141505;28;20041;-70
2022/06/09 01:34:16;;;;;;;7.03;2.50;;;;;;;20.68;67.40;98972.72;3137886;28;20053;-71
2022/06/09 01:35:54;;;;;;;4.13;2.60;;;;;;;20.69;67.33;98965.63;3137261;28;20747;-70
2022/06/09 01:37:30;;;;;;;5.43;2.72;;;;;;;20.70;67.18;98969.09;3137337;28;20375;-69
2022/06/09 01:39:03;;;;;;;5.20;2.90;;;;;;;20.70;67.61;98969.09;3136935;28;20071;-68
2022/06/09 01:40:35;;;;;;;4.40;2.70;;;;;;;20.65;67.67;98964.28;3136659;28;20501;-68
2022/06/09 01:42:19;;;;;;;5.93;3.03;;;;;;;20.62;67.65;98964.59;3136999;28;20057;-69
2022/06/09 01:43:53;;;;;;;8.38;3.40;;;;;;;20.54;67.92;98968.00;3135365;28;20056;-69
2022/06/09 01:45:32;;;;;;;3.85;2.75;;;;;;;20.53;68.22;98968.13;3137309;28;20052;-69
2022/06/09 01:47:05;;;;;;;3.38;2.97;;;;;;;20.51;68.37;98976.19;3136901;28;20052;-70
2022/06/09 01:48:38;;;;;;;6.60;3.30;;;;;;;20.51;68.34;98970.09;3137011;28;20056;-68
2022/06/09 01:50:18;;;;;;;6.60;3.35;;;;;;;20.50;68.12;98971.91;3137014;28;20155;-68
2022/06/09 01:51:52;;;;;;;4.05;2.72;;;;;;;20.51;68.20;98973.56;3131172;28;20048;-69
2022/06/09 01:53:29;;;;;;;4.05;2.80;;;;;;;20.50;68.42;98968.41;3130829;28;20051;-68
2022/06/09 01:55:04;;;;;;;4.45;2.90;;;;;;;20.43;68.76;98966.38;3132298;28;20052;-69
2022/06/09 01:56:41;;;;;;;5.35;3.08;;;;;;;20.34;68.98;98969.09;3137543;28;20049;-69
2022/06/09 01:58:15;;;;;;;7.32;2.97;;;;;;;20.26;69.29;98971.66;3136687;28;20103;-70
2022/06/09 01:59:53;;;;;;;4.50;3.13;;;;;;;20.09;69.89;98960.13;3137047;28;20377;-69
2022/06/09 02:01:31;;;;;;;4.90;3.08;;;;;;;20.10;70.08;98970.53;3137139;28;20048;-68
2022/06/09 02:03:08;;;;;;;5.72;3.05;;;;;;;20.02;70.35;98962.53;3133143;28;20057;-69
2022/06/09 02:04:43;;;;;;;9.07;2.90;;;;;;;19.99;70.59;98961.03;3137858;28;20823;-69
2022/06/09 02:06:16;;;;;;;8.43;3.50;;;;;;;19.93;71.15;98955.50;3134696;28;20204;-71
2022/06/09 02:07:50;;;;;;;3.70;3.20;;;;;;;19.89;71.30;98956.78;3136699;28;20072;-69
2022/06/09 02:09:25;;;;;;;8.95;2.80;;;;;;;19.83;71.46;98952.09;3137316;28;20482;-68
2022/06/09 02:11:00;;;;;;;6.95;3.03;;;;;;;19.84;71.54;98956.41;3136991;28;20505;-69
2022/06/09 02:12:32;;;;;;;3.78;2.80;;;;;;;19.78;71.63;98960.47;3137870;28;20074;-69
2022/06/09 02:14:04;;;;;;;5.90;3.42;;;;;;;19.84;71.57;98964.31;3137364;28;20146;-69
2022/06/09 02:15:39;;;;;;;6.65;3.33;;;;;;;19.84;71.74;98959.03;3136731;28;20524;-69
2022/06/09 02:17:12;;;;;;;4.53;3.05;;;;;;;19.83;71.84;98965.31;3136910;28;20511;-68
2022/06/09 02:18:48;;;;;;;8.40;2.83;;;;;;;19.78;71.87;98963.09;3137738;28;20121;-68
2022/06/09 02:20:23;;;;;;;3.58;2.40;;;;;;;19.80;71.99;98955.03;3137383;28;20056;-69
2022/06/09 02:21:56;;;;;;;6.40;3.22;;;;;;;19.75;71.87;98953.66;3137570;28;20209;-68
2022/06/09 02:23:28;;;;;;;6.77;3.57;;;;;;;19.72;72.13;98956.59;3140063;28;20518;-69
2022/06/09 02:24:59;;;;;;;8.73;3.10;;;;;;;19.71;72.32;98954.13;3141731;28;20105;-69
2022/06/09 02:26:31;;;;;;;7.70;3.13;;;;;;;19.70;72.18;98957.72;3141474;28;20114;-69
2022/06/09 02:28:03;;;;;;;4.22;3.20;;;;;;;19.71;72.34;98957.59;3141431;28;20083;-69
2022/06/09 02:29:35;;;;;;;5.20;3.65;;;;;;;19.62;72.47;98941.78;3141428;28;20059;-70
2022/06/09 02:31:07;;;;;;;5.20;3.70;;;;;;;19.69;72.63;98961.34;3141064;28;20060;-70
2022/06/09 02:32:39;;;;;;;7.97;3.40;;;;;;;19.67;72.99;98958.88;3141325;28;20074;-70
2022/06/09 02:34:13;;;;;;;6.65;3.55;;;;;;;19.64;72.86;98951.22;3141417;28;20056;-70
2022/06/09 02:35:44;;;;;;;6.85;3.78;;;;;;;19.66;72.93;98951.91;3141391;28;20049;-71
2022/06/09 02:37:16;;;;;;;6.03;3.22;;;;;;;19.68;72.96;98949.97;3141459;28;20098;-70
2022/06/09 02:38:48;;;;;;;6.38;3.85;;;;;;;19.72;72.75;98958.41;3141111;28;20468;-70
2022/06/09 02:40:19;;;;;;;8.48;3.67;;;;;;;19.76;72.53;98957.97;3141488;28;20150;-69
2022/06/09 02:41:51;;;;;;;5.57;3.70;;;;;;;19.76;72.60;98955.34;3141412;28;20589;-71
2022/06/09 02:43:25;;;;;;;8.63;3.85;;;;;;;19.78;72.72;98960.47;3141269;28;20122;-69
2022/06/09 02:44:56;;;;;;;;;;;;;;;19.75;72.46;98958.13;3141598;28;20044;-69
2022/06/09 02:46:28;;;;;;;4.13;3.30;;;;;;;19.70;72.79;98955.94;3141069;28;19924;-70
2022/06/09 02:48:01;;;;;;;6.47;3.75;;;;;;;19.69;72.68;98956.91;3141182;28;20527;-70
2022/06/09 02:49:34;;;;;;;4.25;3.50;;;;;;;19.71;72.89;98951.47;3141217;28;20084;-70
2022/06/09 02:51:17;;;;;;;14.10;3.75;;;;;;;19.70;72.86;98955.94;3141013;28;20048;-70
2022/06/09 02:52:49;;;;;;;8.68;4.50;;;;;;;19.71;72.79;98954.13;3140828;28;20151;-70
2022/06/09 02:54:21;;;;;;;5.05;4.47;;;;;;;19.71;72.74;98954.94;3141337;28;20193;-69
2022/06/09 02:55:53;;;;;;;11.73;4.57;;;;;;;19.64;72.83;98938.00;3140915;28;20110;-70
2022/06/09 02:57:25;;;;;;;5.80;4.40;;;;;;;19.70;72.76;98958.56;3141150;28;20045;-70
2022/06/09 02:58:57;;;;;;;7.63;5.28;;;;;;;19.71;73.01;98957.59;3141040;28;20113;-69
2022/06/09 03:00:29;;;;;;;8.68;4.75;;;;;;;19.75;72.76;98960.75;3141346;28;20052;-69
2022/06/09 03:02:01;;;;;;;15.52;5.20;;;;;;;19.73;72.83;98960.09;3141288;28;20814;-69
2022/06/09 03:03:33;;;;;;;8.32;5.32;;;;;;;19.76;72.71;98960.63;3141117;28;20087;-69
2022/06/09 03:05:07;;;;;;;7.80;4.72;;;;;;;19.80;72.40;98960.31;3140865;28;20066;-69
2022/06/09 03:06:39;;;;;;;8.73;5.00;;;;;;;19.83;72.32;98960.03;3141254;28;20132;-69
2022/06/09 03:08:11;;;;;;;9.18;5.30;;;;;;;19.83;72.54;98966.13;3134733;28;20088;-69
2022/06/09 03:09:43;;;;;;;7.72;5.18;;;;;;;19.86;72.32;98957.09;3140928;28;20056;-69
2022/06/09 03:11:15;;;;;;;6.70;5.20;;;;;;;19.88;72.18;98961.25;3141080;28;20098;-69
2022/06/09 03:12:47;;;;;;;6.85;4.93;;;;;;;19.92;71.89;98959.97;3140947;28;20547;-69
2022/06/09 03:14:19;;;;;;;8.13;5.25;;;;;;;19.94;72.04;98957.19;3140906;28;20110;-69
2022/06/09 03:15:51;;;;;;;11.18;6.18;;;;;;;19.98;72.15;98958.53;3140653;28;20052;-69
2022/06/09 03:17:23;;;;;;;8.88;5.70;;;;;;;19.99;71.55;98955.75;3141114;28;20102;-69
2022/06/09 03:18:55;;;;;;;10.30;5.65;;;;;;;20.02;71.96;98959.88;3140881;28;20156;-68
2022/06/09 03:20:33;;;;;;;11.43;6.57;;;;;;;20.06;71.85;98963.91;3140943;28;20060;-67
2022/06/09 03:22:05;;;;;;;8.63;6.13;;;;;;;20.05;71.66;98967.50;3140655;28;20485;-68
2022/06/09 03:23:37;;;;;;;10.98;6.50;;;;;;;20.06;71.68;98968.38;3141082;28;20068;-68
2022/06/09 03:25:10;;;;;;;9.80;7.38;;;;;;;20.07;71.70;98960.28;3140254;28;20585;-67
2022/06/09 03:26:42;;;;;;;13.03;7.93;;;;;;;20.07;71.26;98960.28;3140786;28;20822;-67
2022/06/09 03:28:15;;;;;;;16.48;7.55;;;;;;;20.00;71.55;98952.13;3140364;28;20315;-68
2022/06/09 03:29:47;;;;;;;12.00;7.13;;;;;;;20.08;71.46;98969.84;3140454;28;20051;-69
2022/06/09 03:31:19;;;;;;;13.43;8.55;;;;;;;20.06;71.05;98961.25;3140375;28;20126;-69
2022/06/09 03:32:51;;;;;;;11.20;8.27;;;;;;;20.06;71.08;98957.78;3135910;28;20054;-69
2022/06/09 03:34:23;;;;;;;13.27;8.15;;;;;;;20.08;70.92;98959.28;3140392;28;20167;-69
2022/06/09 03:35:57;;;;;;;16.95;8.43;;;;;;;20.07;71.07;98952.34;3139985;28;20105;-69
2022/06/09 03:37:28;;;;;;;;;;;;;;;20.07;70.88;98957.63;3141033;28;20052;-68
2022/06/09 03:39:01;;;;;;;11.70;7.13;;;;;;;20.08;70.71;98961.91;3141583;28;19931;-69
2022/06/09 03:40:33;;;;;;;9.65;7.22;;;;;;;20.04;70.85;98951.81;3136471;28;20152;-69
2022/06/09 03:42:04;;;;;;;12.05;7.45;;;;;;;20.06;70.42;98952.50;3136359;28;20057;-69
2022/06/09 03:43:37;;;;;;;10.50;7.20;;;;;;;19.96;70.21;98941.97;3136312;28;20533;-70
2022/06/09 03:45:10;;;;;;;11.88;7.53;;;;;;;20.02;70.25;98943.19;3136217;28;20052;-69
2022/06/09 03:46:42;;;;;;;10.95;6.70;;;;;;;20.09;70.32;98955.66;3136127;28;20557;-70
2022/06/09 03:48:14;;;;;;;9.52;6.35;;;;;;;20.13;69.99;98961.47;3136581;28;20052;-70
2022/06/09 03:49:46;;;;;;;9.90;7.13;;;;;;;20.14;69.81;98956.06;3140264;28;20601;-70
2022/06/09 03:51:19;;;;;;;9.38;6.68;;;;;;;20.14;69.80;98952.56;3140712;28;20056;-70
2022/06/09 03:52:51;;;;;;;;;;;;;;;20.18;69.72;98957.41;3140881;28;20052;-70
2022/06/09 03:54:23;;;;;;;9.90;6.68;;;;;;;20.22;69.63;98958.75;3140931;28;19924;-70
2022/06/09 03:55:56;;;;;;;10.15;6.88;;;;;;;20.26;69.91;98961.94;3140444;28;20472;-70
2022/06/09 03:57:27;;;;;;;;;;;;;;;20.28;69.64;98964.44;3140983;28;20064;-70
2022/06/09 03:58:59;;;;;;;11.50;6.60;;;;;;;20.29;69.54;98960.78;3140649;28;19935;-69
2022/06/09 04:00:32;;;;;;;12.25;6.45;;;;;;;20.22;69.61;98950.00;3140437;28;20055;-70
2022/06/09 04:02:04;;;;;;;12.00;7.30;;;;;;;20.31;69.60;98966.78;3140055;28;20473;-70
2022/06/09 04:03:36;;;;;;;14.33;8.37;;;;;;;20.32;69.57;98960.50;3140337;28;20048;-69
2022/06/09 04:05:08;;;;;;;11.38;7.25;;;;;;;20.32;69.90;98964.00;3140345;28;20521;-69
2022/06/09 04:06:43;;;;;;;15.93;8.10;;;;;;;20.33;69.92;98964.81;3136909;28;20581;-69
2022/06/09 04:08:15;;;;;;;15.88;8.18;;;;;;;20.34;69.66;98967.28;3140611;28;20306;-69
2022/06/09 04:09:47;;;;;;;17.60;8.43;;;;;;;20.33;70.10;98968.28;3140331;28;20056;-71
2022/06/09 04:11:21;;;;;;;16.83;8.90;;;;;;;20.20;69.62;98949.31;3139439;28;20052;-70
2022/06/09 04:12:53;;;;;;;21.77;8.77;;;;;;;20.31;69.79;98964.94;3140343;28;20504;-70
2022/06/09 04:14:24;;;;;;;21.33;8.77;;;;;;;20.30;69.85;98962.47;3140279;28;20489;-69
2022/06/09 04:15:56;;;;;;;16.25;8.23;;;;;;;20.30;70.17;98968.59;3139819;28;20102;-69
2022/06/09 04:17:28;;;;;;;19.00;7.22;;;;;;;20.31;70.05;98969.41;3140352;28;20056;-69
2022/06/09 04:19:03;;;;;;;9.80;5.93;;;;;;;20.31;70.06;98966.78;3140160;28;20110;-69
2022/06/09 04:20:35;;;;;;;15.52;6.80;;;;;;;20.29;69.69;98961.66;3140209;28;20082;-69
2022/06/09 04:22:09;;;;;;;13.25;6.22;;;;;;;20.32;69.62;98966.63;3140142;28;20076;-69
2022/06/09 04:23:41;;;;;;;10.45;6.50;;;;;;;20.32;69.53;98960.50;3140053;28;20052;-69
2022/06/09 04:25:13;;;;;;;18.42;6.93;;;;;;;20.32;69.48;98957.84;3139814;28;20052;-68
2022/06/09 04:26:45;;;;;;;11.57;6.93;;;;;;;20.32;69.47;98964.00;3139833;28;20118;-69
2022/06/09 04:28:18;;;;;;;15.18;7.57;;;;;;;20.35;69.60;98968.13;3139955;28;20052;-69
2022/06/09 04:29:49;;;;;;;10.63;5.75;;;;;;;20.36;69.41;98967.16;3139508;28;20391;-70
2022/06/09 04:31:21;;;;;;;12.60;6.35;;;;;;;20.37;69.24;98971.44;3139862;28;20067;-68
2022/06/09 04:32:53;;;;;;;14.75;6.20;;;;;;;20.38;69.41;98965.16;3140040;28;20052;-68
2022/06/09 04:34:25;;;;;;;16.55;6.82;;;;;;;20.39;69.47;98961.56;3140130;28;20457;-65
2022/06/09 04:35:57;;;;;;;17.13;6.78;;;;;;;20.41;69.18;98963.06;3139822;28;20052;-65
2022/06/09 04:39:16;;;;;;;15.90;7.50;;;;;;;20.47;69.46;98966.94;3137816;28;20091;-65
2022/06/09 04:40:48;;;;;;;12.05;6.78;;;;;;;20.52;69.30;98958.50;3140004;28;20426;-64
2022/06/09 04:42:20;;;;;;;11.82;6.65;;;;;;;20.55;69.00;98961.72;3140184;28;20486;-66
2022/06/09 04:43:51;;;;;;;12.15;7.00;;;;;;;20.58;68.95;98958.75;3139908;28;20117;-64
2022/06/09 04:45:22;;;;;;;16.25;7.45;;;;;;;20.59;68.19;98960.44;3139982;28;20056;-62
2022/06/09 04:46:54;;;;;;;14.85;7.50;;;;;;;20.61;68.44;98960.25;3139605;28;20121;-62
2022/06/09 04:48:26;;;;;;;15.43;6.97;;;;;;;20.61;68.33;98965.56;3133983;28;20051;-60
2022/06/09 04:49:57;;;;;;;17.05;6.85;;;;;;;20.64;68.75;98957.31;3140070;28;20102;-61
2022/06/09 04:51:30;;;;;;;16.75;6.88;;;;;;;20.64;68.48;98959.97;3139886;28;20474;-63
2022/06/09 04:53:03;;;;;;;;;;;;;;;20.71;68.50;98966.31;3140236;28;20547;-62
2022/06/09 04:54:36;;;;;;;11.40;6.72;;;;;;;20.77;68.16;98965.69;3140060;28;19932;-61
2022/06/09 04:56:09;;;;;;;96.53;55.30;;;;;;;20.82;68.15;98976.66;3140101;28;20075;-61
2022/06/09 04:57:41;;;;;;;20.92;12.15;;;;;;;20.85;67.48;98968.41;3139973;28;20045;-61
2022/06/09 04:59:12;;;;;;;15.55;6.80;;;;;;;20.89;67.05;98966.25;3140097;28;20109;-63
2022/06/09 05:00:45;;;;;;;15.63;6.90;;;;;;;20.93;67.02;98969.44;3139764;28;20381;-61
2022/06/09 05:02:17;;;;;;;13.38;7.32;;;;;;;20.96;66.77;98972.59;3139940;28;20106;-61
2022/06/09 05:03:50;;;;;;;11.15;6.50;;;;;;;20.98;66.68;98975.91;3139609;28;20167;-62
2022/06/09 05:05:25;;;;;;;11.10;6.18;;;;;;;21.03;66.30;98971.00;3139381;28;20455;-63
2022/06/09 05:06:57;;;;;;;14.15;6.22;;;;;;;21.07;66.32;98977.63;3140008;28;20596;-62
2022/06/09 05:08:30;;;;;;;16.75;6.90;;;;;;;21.09;66.50;98980.94;3139823;28;20049;-63
2022/06/09 05:10:01;;;;;;;14.00;7.25;;;;;;;21.12;66.32;98985.94;3139906;28;20052;-64
2022/06/09 05:11:32;;;;;;;21.77;7.32;;;;;;;21.12;66.24;98980.63;3140090;28;20598;-63
2022/06/09 05:13:06;;;;;;;13.40;7.30;;;;;;;21.08;66.07;98979.28;3139476;28;20060;-65
2022/06/09 05:14:37;;;;;;;13.98;7.80;;;;;;;21.09;66.23;98977.47;3139676;28;20383;-64
2022/06/09 05:16:10;;;;;;;15.25;7.18;;;;;;;21.08;66.22;98981.91;3139918;28;20048;-63
2022/06/09 05:17:43;;;;;;;13.75;6.75;;;;;;;21.09;66.22;98985.41;3140056;28;20133;-63
2022/06/09 05:19:14;;;;;;;12.35;7.32;;;;;;;21.12;66.15;98983.28;3139557;28;20052;-62
2022/06/09 05:20:46;;;;;;;11.65;6.63;;;;;;;21.12;66.06;98987.75;3139372;28;20098;-62
2022/06/09 05:22:18;;;;;;;10.52;6.55;;;;;;;21.17;66.00;98984.63;3140020;28;20053;-60
2022/06/09 05:23:51;;;;;;;10.27;6.15;;;;;;;21.16;65.67;98978.50;3139920;28;20159;-61
2022/06/09 05:25:24;;;;;;;15.35;6.82;;;;;;;21.19;65.26;98986.13;3136168;28;20052;-61
2022/06/09 05:26:56;;;;;;;12.53;6.80;;;;;;;21.20;65.56;98982.47;3139589;28;20044;-61
2022/06/09 05:28:29;;;;;;;12.80;6.55;;;;;;;21.23;65.50;98987.47;3139665;28;20306;-61
2022/06/09 05:30:01;;;;;;;15.27;6.57;;;;;;;21.28;65.14;98976.41;3140173;28;20049;-61
2022/06/09 05:31:33;;;;;;;11.90;6.25;;;;;;;21.34;64.91;98978.44;3139857;28;20506;-62
2022/06/09 05:33:05;;;;;;;11.90;7.13;;;;;;;21.43;64.85;98979.34;3141666;28;20441;-63
2022/06/09 05:34:37;;;;;;;16.88;6.95;;;;;;;21.48;64.72;98977.88;3139198;28;20052;-64
2022/06/09 05:36:09;;;;;;;12.45;6.45;;;;;;;21.51;64.60;98977.56;3140057;28;20052;-63
2022/06/09 05:45:04;;;;;;;18.30;7.45;;;;;;;21.73;63.71;98975.31;3138797;28;20056;-66
2022/06/09 05:46:36;;;;;;;14.20;7.28;;;;;;;21.78;63.97;98978.31;3138314;28;20101;-65
2022/06/09 05:48:08;;;;;;;14.20;7.43;;;;;;;21.82;64.03;98974.34;3139463;28;20110;-64
2022/06/09 05:49:40;;;;;;;17.85;7.75;;;;;;;21.85;63.53;98970.53;3140835;28;20052;-64
2022/06/09 05:51:14;;;;;;;13.60;7.78;;;;;;;21.85;63.48;98971.34;3140553;28;20109;-65
2022/06/09 05:52:45;;;;;;;15.77;7.93;;;;;;;21.84;63.70;98969.72;3140989;28;20057;-65
2022/06/09 05:54:17;;;;;;;22.40;7.70;;;;;;;21.89;63.47;98977.16;3140793;28;20243;-64
2022/06/09 05:55:51;;;;;;;13.30;7.00;;;;;;;21.89;63.62;98962.13;3134573;28;20056;-65
2022/06/09 05:57:23;;;;;;;;;;;;;;;22.02;63.41;98970.41;3141121;28;20797;-66
2022/06/09 05:58:55;;;;;;;13.00;7.18;;;;;;;22.11;63.39;98965.13;3140720;28;19924;-71
2022/06/09 06:00:27;;;;;;;16.73;7.70;;;;;;;22.20;63.18;98962.34;3140876;28;20117;-69
2022/06/09 06:01:58;;;;;;;17.83;7.22;;;;;;;22.29;62.98;98967.66;3142093;28;20056;-71
2022/06/09 06:03:30;;;;;;;21.48;7.22;;;;;;;22.37;62.79;98962.38;3141631;28;20614;-69
2022/06/09 06:05:02;;;;;;;14.95;7.70;;;;;;;22.42;62.78;98955.59;3141881;28;20289;-67
2022/06/09 06:06:33;;;;;;;15.40;7.55;;;;;;;22.50;62.27;98960.03;3141849;28;20517;-68
2022/06/09 06:08:06;;;;;;;13.40;7.30;;;;;;;22.57;62.34;98960.19;3138221;28;20052;-67
2022/06/09 06:09:38;;;;;;;21.15;8.68;;;;;;;22.56;62.30;98956.72;3141930;28;20048;-69
2022/06/09 06:11:14;;;;;;;17.42;7.72;;;;;;;22.58;62.30;98946.78;3141667;28;20048;-68
2022/06/09 06:12:46;;;;;;;18.63;7.78;;;;;;;22.67;62.11;98951.06;3141856;28;20048;-70
2022/06/09 06:14:20;;;;;;;12.93;7.95;;;;;;;22.63;62.02;98948.94;3141971;28;20061;-69
2022/06/09 06:15:51;;;;;;;20.33;8.82;;;;;;;22.67;62.33;98950.25;3141283;28;20048;-67
2022/06/09 06:17:23;;;;;;;19.95;7.88;;;;;;;22.71;62.33;98952.38;3141425;28;20614;-69
2022/06/09 06:18:55;;;;;;;22.15;8.63;;;;;;;22.75;62.15;98954.72;3141167;28;20510;-69
2022/06/09 06:20:27;;;;;;;22.25;9.85;;;;;;;22.70;62.25;98961.34;3141415;28;20110;-70
2022/06/09 06:22:01;;;;;;;16.52;8.88;;;;;;;;;;3141222;28;20057;-71
2022/06/09 06:23:36;;;;;;;18.55;9.63;;;;;;;22.60;62.38;98958.06;3141591;28;20059;-67
2022/06/09 06:25:09;;;;;;;14.02;8.60;;;;;;;22.60;62.79;98954.59;3139734;28;20059;-68
2022/06/09 06:26:43;;;;;;;15.20;9.23;;;;;;;22.55;62.60;98938.31;3141694;28;20583;-67
2022/06/09 06:28:15;;;;;;;18.15;9.38;;;;;;;22.68;62.91;98959.88;3142179;28;20520;-68
2022/06/09 06:29:47;;;;;;;20.15;11.55;;;;;;;22.70;62.26;98956.03;3141523;28;20052;-66
2022/06/09 06:31:19;;;;;;;16.02;10.63;;;;;;;22.73;62.63;98952.22;3140969;28;20054;-67
2022/06/09 06:32:51;;;;;;;15.75;9.20;;;;;;;22.76;62.66;98948.41;3141410;28;20049;-65
2022/06/09 06:34:23;;;;;;;14.02;8.70;;;;;;;22.87;62.26;98950.72;3141773;28;20052;-67
2022/06/09 06:35:54;;;;;;;18.40;9.68;;;;;;;22.98;62.29;98946.91;3141319;28;20453;-69
2022/06/09 06:37:26;;;;;;;16.00;8.70;;;;;;;23.03;61.91;98949.88;3141127;28;20052;-68
2022/06/09 06:38:59;;;;;;;17.80;8.68;;;;;;;23.11;61.62;98941.91;3141667;28;20567;-69
2022/06/09 06:40:31;;;;;;;19.40;9.37;;;;;;;23.28;61.21;98948.81;3141910;28;20140;-69
2022/06/09 06:42:05;;;;;;;17.40;9.65;;;;;;;23.38;60.67;98952.09;3141223;28;20380;-68
2022/06/09 06:43:37;;;;;;;16.50;7.90;;;;;;;23.41;60.91;98931.50;3137131;28;20118;-68
2022/06/09 06:45:12;;;;;;;27.85;8.80;;;;;;;23.60;60.30;98947.88;3135186;28;20255;-71
2022/06/09 06:46:44;;;;;;;13.30;8.27;;;;;;;23.71;60.15;98951.97;3139524;28;20535;-69
2022/06/09 06:48:15;;;;;;;12.77;8.07;;;;;;;23.77;59.96;98950.44;3141110;28;20056;-68
2022/06/09 06:49:47;;;;;;;17.25;7.68;;;;;;;23.84;59.35;98949.59;3139311;28;20041;-68
2022/06/09 06:51:19;;;;;;;17.00;8.52;;;;;;;23.90;59.16;98953.38;3135996;28;20118;-69
2022/06/09 06:52:51;;;;;;;11.52;5.88;;;;;;;23.95;58.76;98948.34;3137901;28;20139;-69
2022/06/09 06:54:23;;;;;;;17.15;7.57;;;;;;;23.95;58.50;98947.53;3137565;28;20057;-69
2022/06/09 06:55:55;;;;;;;20.83;9.20;;;;;;;24.00;58.24;98950.50;3137523;28;20060;-69
2022/06/09 06:57:28;;;;;;;16.48;7.55;;;;;;;24.04;58.68;98949.13;3138508;28;20503;-71
2022/06/09 06:59:01;;;;;;;;;;;;;;;24.05;58.81;98948.13;3139750;28;20110;-69
2022/06/09 07:00:33;;;;;;;17.88;7.43;;;;;;;24.07;58.22;98948.78;3138888;28;19924;-70
2022/06/09 07:02:05;;;;;;;30.50;18.15;;;;;;;24.09;58.51;98946.78;3138551;28;20529;-68
2022/06/09 07:03:37;;;;;;;20.17;9.25;;;;;;;24.14;58.20;98946.25;3138165;28;20057;-71
2022/06/09 07:05:10;;;;;;;15.10;8.98;;;;;;;24.18;58.45;98943.03;3138562;28;20063;-69
2022/06/09 07:06:42;;;;;;;14.75;8.25;;;;;;;24.20;58.15;98940.22;3140688;28;20052;-68
2022/06/09 07:08:16;;;;;;;12.98;8.40;;;;;;;24.21;57.93;98941.88;3139484;28;20208;-69
2022/06/09 07:09:48;;;;;;;19.67;9.70;;;;;;;24.18;57.47;98935.06;3138814;28;20438;-71
2022/06/09 07:11:20;;;;;;;14.90;8.32;;;;;;;24.18;57.87;98944.88;3139989;28;20452;-69
2022/06/09 07:12:53;;;;;;;20.02;8.90;;;;;;;24.21;57.54;98948.00;3138927;28;20076;-69
2022/06/09 07:14:25;;;;;;;23.63;9.07;;;;;;;24.27;57.68;98947.28;3137073;28;20049;-71
2022/06/09 07:15:57;;;;;;;18.20;8.85;;;;;;;24.34;57.64;98949.25;3139148;28;20055;-72
2022/06/09 07:17:29;;;;;;;15.15;8.50;;;;;;;24.33;56.97;98943.09;3140169;28;20109;-69
2022/06/09 07:19:01;;;;;;;17.85;9.93;;;;;;;24.34;56.68;98942.06;3136619;28;20536;-70
2022/06/09 07:20:33;;;;;;;18.70;8.38;;;;;;;24.36;56.84;98940.06;3140295;28;20053;-70
2022/06/09 07:22:06;;;;;;;14.15;7.80;;;;;;;24.43;56.99;98937.56;3141116;28;20110;-68
2022/06/09 07:23:38;;;;;;;10.98;7.47;;;;;;;24.50;57.07;98933.19;3142670;28;20477;-71
2022/06/09 07:25:12;;;;;;;10.48;7.07;;;;;;;24.60;56.80;98930.25;3141049;28;20126;-68
2022/06/09 07:26:44;;;;;;;16.08;8.68;;;;;;;24.68;56.54;98933.66;3140735;28;20525;-69
2022/06/09 07:28:17;;;;;;;12.35;7.70;;;;;;;24.69;56.04;98922.00;3141197;28;20155;-69